Time;durP1;ratioP1;P1;durP2;ratioP2;P2;SDS_P1;SDS_P2;PMS_P1;PMS_P2;Temp;Humidity;BMP_temperature;BMP_pressure;BME280_temperature;BME280_humidity;BME280_pressure;Samples;Min_cycle;Max_cycle;Signal;HPM_P1;HPM_P2
2022/05/11 00:00:50;;;;;;;6.95;4.25;;;;;;;;;;10368047;28;20071;-57
2022/05/11 00:05:50;;;;;;;10.07;4.65;;;;;;;;;;10367761;28;20044;-57
2022/05/11 00:10:49;;;;;;;9.18;4.50;;;;;;;;;;10367930;28;20079;-54
2022/05/11 00:15:47;;;;;;;9.32;4.38;;;;;;;;;;10367070;28;20493;-57
2022/05/11 00:20:45;;;;;;;7.53;4.30;;;;;;;;;;10363779;28;20079;-57
2022/05/11 00:25:45;;;;;;;8.63;4.93;;;;;;;;;;10366784;28;20040;-57
2022/05/11 00:30:44;;;;;;;7.10;3.92;;;;;;;;;;10360493;28;20047;-57
2022/05/11 00:35:43;;;;;;;8.93;3.40;;;;;;;;;;10360598;28;20052;-57
2022/05/11 00:40:42;;;;;;;13.38;4.22;;;;;;;;;;10360305;28;20063;-57
2022/05/11 00:45:42;;;;;;;6.43;4.30;;;;;;;;;;10360100;28;20083;-58
2022/05/11 00:50:41;;;;;;;5.95;3.90;;;;;;;;;;10360358;28;20143;-57
2022/05/11 00:55:41;;;;;;;7.25;3.65;;;;;;;;;;10359697;28;20067;-57
2022/05/11 01:00:40;;;;;;;5.60;3.95;;;;;;;;;;10359478;28;20500;-58
2022/05/11 01:05:41;;;;;;;4.90;4.03;;;;;;;;;;10359555;28;20044;-57
2022/05/11 01:10:39;;;;;;;7.18;3.88;;;;;;;;;;10359284;28;20091;-58
2022/05/11 01:15:37;;;;;;;8.55;3.80;;;;;;;;;;10359418;28;20040;-57
2022/05/11 01:20:37;;;;;;;6.97;3.97;;;;;;;;;;10358874;28;20079;-57
2022/05/11 01:25:36;;;;;;;4.70;3.67;;;;;;;;;;10358734;28;20067;-56
2022/05/11 01:30:35;;;;;;;6.43;4.22;;;;;;;;;;10358141;28;20083;-57
2022/05/11 01:35:37;;;;;;;6.47;4.50;;;;;;;;;;10357779;28;20044;-55
2022/05/11 01:40:37;;;;;;;4.57;4.03;;;;;;;;;;10357918;28;20086;-57
2022/05/11 01:45:35;;;;;;;6.20;4.22;;;;;;;;;;10356907;28;20113;-56
2022/05/11 01:50:33;;;;;;;7.35;4.00;;;;;;;;;;10355033;28;20078;-57
2022/05/11 01:55:32;;;;;;;5.93;5.22;;;;;;;;;;10357248;28;20071;-57
2022/05/11 02:00:31;;;;;;;11.40;6.00;;;;;;;;;;10356507;28;20072;-57
2022/05/11 02:10:45;;;;;;;14.40;6.57;;;;;;;;;;10349443;28;20083;-56
2022/05/11 02:15:44;;;;;;;11.27;6.05;;;;;;;;;;10352580;28;20094;-57
2022/05/11 02:20:43;;;;;;;11.55;6.05;;;;;;;;;;10354063;28;20071;-57
2022/05/11 02:25:43;;;;;;;12.25;5.93;;;;;;;;;;10356179;28;20075;-57
2022/05/11 02:30:42;;;;;;;8.85;5.93;;;;;;;;;;10356318;28;20083;-57
2022/05/11 02:35:42;;;;;;;10.57;6.18;;;;;;;;;;10356148;28;20083;-58
2022/05/11 02:40:41;;;;;;;9.85;6.78;;;;;;;;;;10355803;28;20072;-56
2022/05/11 02:45:40;;;;;;;14.10;11.07;;;;;;;;;;10355244;28;20470;-58
2022/05/11 02:50:40;;;;;;;15.32;9.70;;;;;;;;;;10355673;28;20087;-58
2022/05/11 02:55:41;;;;;;;14.60;7.47;;;;;;;;;;10355264;28;20067;-58
2022/05/11 03:00:40;;;;;;;10.70;9.07;;;;;;;;;;10356462;28;20087;-58
2022/05/11 03:05:39;;;;;;;10.90;6.53;;;;;;;;;;10356254;28;20040;-57
2022/05/11 03:10:39;;;;;;;11.27;6.68;;;;;;;;;;10348820;28;20084;-58
2022/05/11 03:15:38;;;;;;;12.55;6.70;;;;;;;;;;10354935;28;20528;-58
2022/05/11 03:20:36;;;;;;;9.80;6.22;;;;;;;;;;10354963;28;20509;-57
2022/05/11 03:25:35;;;;;;;8.27;5.75;;;;;;;;;;10354965;28;20142;-58
2022/05/11 03:30:33;;;;;;;9.38;6.32;;;;;;;;;;10354822;28;20052;-57
2022/05/11 03:35:33;;;;;;;8.65;5.40;;;;;;;;;;10354606;28;20059;-58
2022/05/11 03:40:31;;;;;;;7.88;4.47;;;;;;;;;;10354782;28;20072;-58
2022/05/11 03:45:29;;;;;;;7.35;4.70;;;;;;;;;;10354360;28;20077;-58
2022/05/11 03:50:27;;;;;;;8.35;4.47;;;;;;;;;;10354343;28;20095;-57
2022/05/11 03:55:27;;;;;;;5.75;4.45;;;;;;;;;;10354331;28;20524;-58
2022/05/11 04:00:26;;;;;;;14.00;10.50;;;;;;;;;;10354157;28;20095;-58
2022/05/11 04:05:24;;;;;;;6.95;5.18;;;;;;;;;;10360539;28;20078;-59
2022/05/11 04:10:22;;;;;;;9.55;6.63;;;;;;;;;;10361725;28;20083;-58
2022/05/11 04:15:22;;;;;;;12.63;9.63;;;;;;;;;;10361062;28;20075;-58
2022/05/11 04:20:20;;;;;;;5.88;4.65;;;;;;;;;;10361300;28;20095;-58
2022/05/11 04:25:19;;;;;;;44.65;37.38;;;;;;;;;;10361508;28;20070;-54
2022/05/11 04:30:18;;;;;;;29.42;25.60;;;;;;;;;;10361276;28;20068;-56
2022/05/11 04:35:18;;;;;;;48.28;41.45;;;;;;;;;;10360882;28;20047;-59
2022/05/11 04:40:16;;;;;;;11.32;10.02;;;;;;;;;;10357017;28;20484;-58
2022/05/11 04:45:14;;;;;;;7.47;5.88;;;;;;;;;;10356114;28;20062;-57
2022/05/11 04:50:14;;;;;;;9.15;5.68;;;;;;;;;;10357942;28;20067;-58
2022/05/11 04:55:17;;;;;;;11.75;5.18;;;;;;;;;;10353646;28;20072;-58
2022/05/11 05:00:16;;;;;;;5.78;4.60;;;;;;;;;;10355486;28;20493;-57
2022/05/11 05:05:15;;;;;;;5.38;4.38;;;;;;;;;;10354568;28;20070;-58
2022/05/11 05:10:14;;;;;;;7.43;4.97;;;;;;;;;;10358319;28;20086;-58
2022/05/11 05:15:14;;;;;;;11.02;5.88;;;;;;;;;;10353958;28;20072;-55
2022/05/11 05:20:14;;;;;;;8.23;5.68;;;;;;;;;;10356928;28;20569;-55
2022/05/11 05:25:13;;;;;;;9.55;5.90;;;;;;;;;;10356795;28;20533;-58
2022/05/11 05:35:28;;;;;;;10.10;7.15;;;;;;;;;;10356459;28;20070;-57
2022/05/11 05:40:26;;;;;;;12.60;8.05;;;;;;;;;;10358036;28;20489;-57
2022/05/11 05:45:25;;;;;;;14.40;6.78;;;;;;;;;;10356861;28;20054;-57
2022/05/11 05:50:23;;;;;;;15.77;8.95;;;;;;;;;;10352599;28;20079;-57
2022/05/11 05:55:23;;;;;;;15.05;7.25;;;;;;;;;;10354464;28;20067;-54
2022/05/11 06:00:21;;;;;;;21.50;7.13;;;;;;;;;;10356652;28;20071;-57
2022/05/11 06:05:20;;;;;;;22.58;10.75;;;;;;;;;;10355380;28;20074;-58
2022/05/11 06:10:18;;;;;;;15.27;10.30;;;;;;;;;;10354555;28;20467;-57
2022/05/11 06:15:17;;;;;;;22.75;18.27;;;;;;;;;;10355234;28;20557;-57
2022/05/11 06:20:16;;;;;;;15.88;11.60;;;;;;;;;;10353944;28;20071;-57
2022/05/11 06:25:14;;;;;;;22.33;13.77;;;;;;;;;;10351994;28;20090;-57
2022/05/11 06:30:13;;;;;;;12.48;8.25;;;;;;;;;;10355241;28;20074;-57
2022/05/11 06:35:12;;;;;;;23.33;10.32;;;;;;;;;;10351721;28;20080;-58
2022/05/11 06:40:12;;;;;;;12.25;6.95;;;;;;;;;;10352577;28;20075;-58
2022/05/11 06:45:11;;;;;;;15.18;6.80;;;;;;;;;;10349877;28;20079;-58
2022/05/11 06:50:11;;;;;;;17.20;7.30;;;;;;;;;;10355643;28;20076;-58
2022/05/11 07:00:28;;;;;;;13.52;9.40;;;;;;;;;;10354699;28;20059;-58
2022/05/11 07:05:27;;;;;;;18.30;8.38;;;;;;;;;;10352030;28;20502;-57
2022/05/11 07:10:26;;;;;;;10.38;8.18;;;;;;;;;;10353231;28;20083;-58
2022/05/11 07:15:25;;;;;;;12.52;8.00;;;;;;;;;;10354659;28;20080;-58
2022/05/11 07:20:26;;;;;;;18.33;7.85;;;;;;;;;;10352890;28;20071;-58
2022/05/11 07:25:25;;;;;;;15.02;6.57;;;;;;;;;;10354142;28;20707;-58
2022/05/11 07:30:26;;;;;;;11.52;5.80;;;;;;;;;;10354668;28;20067;-59
2022/05/11 07:35:31;;;;;;;8.75;5.40;;;;;;;;;;10355312;28;20082;-59
2022/05/11 07:40:29;;;;;;;10.10;5.65;;;;;;;;;;10361089;28;20075;-58
2022/05/11 07:45:28;;;;;;;6.75;4.43;;;;;;;;;;10361691;28;20068;-57
2022/05/11 07:50:27;;;;;;;8.75;4.60;;;;;;;;;;10359413;28;20067;-59
2022/05/11 07:55:26;;;;;;;7.25;5.57;;;;;;;;;;10360923;28;20074;-58
2022/05/11 08:00:25;;;;;;;12.60;5.30;;;;;;;;;;10361150;28;20497;-58
2022/05/11 08:05:30;;;;;;;8.48;5.32;;;;;;;;;;10361963;28;20473;-58
2022/05/11 08:10:30;;;;;;;6.88;4.97;;;;;;;;;;10362039;28;20406;-58
2022/05/11 08:15:31;;;;;;;9.63;6.20;;;;;;;;;;10362186;28;20079;-59
2022/05/11 08:20:33;;;;;;;11.20;6.32;;;;;;;;;;10359187;28;20083;-58
2022/05/11 08:25:33;;;;;;;9.82;6.32;;;;;;;;;;10357131;28;20072;-57
2022/05/11 08:35:50;;;;;;;10.25;6.30;;;;;;;;;;10360060;28;20087;-58
2022/05/11 08:40:50;;;;;;;8.57;5.95;;;;;;;;;;10355426;28;20446;-58
2022/05/11 08:45:51;;;;;;;11.90;7.28;;;;;;;;;;10361048;28;20090;-58
2022/05/11 08:50:51;;;;;;;10.90;6.88;;;;;;;;;;10358319;28;20064;-60
2022/05/11 08:55:50;;;;;;;6.97;6.10;;;;;;;;;;10360125;28;20086;-59
2022/05/11 09:00:49;;;;;;;9.05;5.97;;;;;;;;;;10359784;28;20083;-59
2022/05/11 09:05:48;;;;;;;8.75;5.28;;;;;;;;;;10355715;28;20532;-59
2022/05/11 09:10:47;;;;;;;9.15;4.53;;;;;;;;;;10359639;28;20478;-59
2022/05/11 09:15:49;;;;;;;9.43;4.63;;;;;;;;;;10356780;28;20079;-59
2022/05/11 09:20:50;;;;;;;5.68;4.50;;;;;;;;;;10352351;28;20087;-61
2022/05/11 09:25:58;;;;;;;8.43;4.32;;;;;;;;;;10352339;28;20088;-59
2022/05/11 09:30:59;;;;;;;5.63;4.63;;;;;;;;;;10353024;28;20092;-59
2022/05/11 09:35:57;;;;;;;9.00;4.65;;;;;;;;;;10353642;28;20048;-58
2022/05/11 09:41:22;;;;;;;7.75;4.82;;;;;;;;;;10352392;28;20082;-59
2022/05/11 09:46:23;;;;;;;4.93;3.88;;;;;;;;;;10355166;28;20076;-58
2022/05/11 09:51:23;;;;;;;11.15;4.18;;;;;;;;;;10358079;28;20071;-59
2022/05/11 09:56:23;;;;;;;5.30;3.58;;;;;;;;;;10358226;28;20044;-59
2022/05/11 10:01:25;;;;;;;8.77;3.30;;;;;;;;;;10358109;28;20051;-58
2022/05/11 10:06:24;;;;;;;6.43;3.08;;;;;;;;;;10357539;28;20063;-58
2022/05/11 10:11:25;;;;;;;6.18;3.28;;;;;;;;;;10357657;28;20094;-58
2022/05/11 10:21:53;;;;;;;7.72;3.00;;;;;;;;;;10356705;28;20106;-58
2022/05/11 10:26:58;;;;;;;4.90;3.28;;;;;;;;;;10356968;28;20086;-58
2022/05/11 10:32:02;;;;;;;6.97;3.00;;;;;;;;;;10356559;28;20068;-58
2022/05/11 10:37:03;;;;;;;7.78;3.28;;;;;;;;;;10356451;28;20072;-58
2022/05/11 10:42:08;;;;;;;6.28;3.95;;;;;;;;;;10356005;28;20076;-58
2022/05/11 10:47:14;;;;;;;4.93;3.63;;;;;;;;;;10356067;28;20044;-58
2022/05/11 10:52:22;;;;;;;5.22;3.58;;;;;;;;;;10355715;28;20080;-57
2022/05/11 10:57:26;;;;;;;10.00;3.88;;;;;;;;;;10356012;28;20047;-59
2022/05/11 11:02:24;;;;;;;;;;;;;;;;;;10348847;28;20080;-59
2022/05/11 11:07:26;;;;;;;3.60;3.05;;;;;;;;;;10356075;28;19963;-59
2022/05/11 11:12:31;;;;;;;5.47;3.90;;;;;;;;;;10348612;28;20079;-57
2022/05/11 11:17:30;;;;;;;5.18;3.20;;;;;;;;;;10349664;28;20473;-57
2022/05/11 11:22:28;;;;;;;7.30;4.00;;;;;;;;;;10355046;28;20087;-57
2022/05/11 11:27:49;;;;;;;6.85;4.70;;;;;;;;;;10355418;28;20071;-58
2022/05/11 11:32:51;;;;;;;;;;;;;;;;;;10352404;28;20040;-58
2022/05/11 11:38:00;;;;;;;7.55;4.00;;;;;;;;;;10355455;28;19959;-59
2022/05/11 11:43:38;;;;;;;6.82;4.00;;;;;;;;;;10355073;28;20084;-58
2022/05/11 11:48:18;;;;;;;8.57;3.53;;;;;;;;;;10349251;28;20081;-58
2022/05/11 11:53:23;;;;;;;9.90;3.35;;;;;;;;;;10348562;28;20048;-58
2022/05/11 11:58:27;;;;;;;4.45;3.05;;;;;;;;;;10349534;28;20079;-58
2022/05/11 12:03:27;;;;;;;9.63;3.80;;;;;;;;;;10354179;28;20090;-57
2022/05/11 12:19:10;;;;;;;7.35;3.65;;;;;;;;;;10351214;28;20052;-60
2022/05/11 12:24:22;;;;;;;5.80;4.55;;;;;;;;;;10358285;28;20080;-59
2022/05/11 12:34:41;;;;;;;8.15;5.00;;;;;;;;;;10361867;28;20044;-59
2022/05/11 12:39:41;;;;;;;12.40;8.10;;;;;;;;;;10359861;28;20466;-59
2022/05/11 12:44:40;;;;;;;4.75;3.60;;;;;;;;;;10359206;28;20486;-58
2022/05/11 12:49:38;;;;;;;11.90;7.15;;;;;;;;;;10359210;28;20094;-59
2022/05/11 12:54:37;;;;;;;6.75;3.90;;;;;;;;;;10361110;28;20452;-59
2022/05/11 12:59:37;;;;;;;7.68;4.65;;;;;;;;;;10361109;28;20440;-58
2022/05/11 13:04:35;;;;;;;4.70;3.00;;;;;;;;;;10359236;28;20087;-58
2022/05/11 13:09:35;;;;;;;7.15;5.47;;;;;;;;;;10359749;28;20078;-59
2022/05/11 13:14:35;;;;;;;11.75;4.80;;;;;;;;;;10360759;28;20051;-59
2022/05/11 13:19:41;;;;;;;4.60;4.00;;;;;;;;;;10358228;28;20083;-58
2022/05/11 13:24:41;;;;;;;8.73;4.32;;;;;;;;;;10357634;28;20179;-59
2022/05/11 13:29:39;;;;;;;7.28;3.70;;;;;;;;;;10358052;28;20088;-59
2022/05/11 13:34:39;;;;;;;9.15;3.50;;;;;;;;;;10358980;28;20044;-59
2022/05/11 13:39:40;;;;;;;6.13;3.83;;;;;;;;;;10359453;28;20051;-58
2022/05/11 13:44:40;;;;;;;5.88;4.72;;;;;;;;;;10356496;28;20079;-58
2022/05/11 13:49:40;;;;;;;8.77;4.35;;;;;;;;;;10357389;28;20059;-58
2022/05/11 13:54:42;;;;;;;4.15;2.97;;;;;;;;;;10356444;28;20072;-58
2022/05/11 13:59:44;;;;;;;5.72;3.05;;;;;;;;;;10357866;28;20056;-59
2022/05/11 14:04:43;;;;;;;8.13;5.32;;;;;;;;;;10359875;28;20080;-58
2022/05/11 14:09:44;;;;;;;3.88;3.17;;;;;;;;;;10357870;28;20083;-59
2022/05/11 14:14:42;;;;;;;6.07;3.95;;;;;;;;;;10356441;28;20067;-58
2022/05/11 14:19:45;;;;;;;9.75;5.20;;;;;;;;;;10357159;28;20071;-59
2022/05/11 14:24:44;;;;;;;7.43;4.60;;;;;;;;;;10355522;28;20076;-58
2022/05/11 14:29:44;;;;;;;4.45;3.22;;;;;;;;;;10357792;28;20044;-58
2022/05/11 14:34:42;;;;;;;7.75;3.30;;;;;;;;;;10358572;28;20078;-59
2022/05/11 14:39:42;;;;;;;4.38;3.17;;;;;;;;;;10358623;28;20098;-58
2022/05/11 14:44:41;;;;;;;4.95;3.53;;;;;;;;;;10358081;28;20075;-59
2022/05/11 14:49:58;;;;;;;4.55;3.00;;;;;;;;;;10353286;28;20083;-59
2022/05/11 14:54:57;;;;;;;10.52;3.85;;;;;;;;;;10358137;28;20444;-58
2022/05/11 15:05:14;;;;;;;4.28;3.72;;;;;;;;;;10351826;28;20143;-58
2022/05/11 15:10:14;;;;;;;6.63;3.22;;;;;;;;;;10351736;28;20052;-58
2022/05/11 15:15:13;;;;;;;4.63;3.30;;;;;;;;;;10352381;28;20067;-59
2022/05/11 15:20:14;;;;;;;7.18;4.30;;;;;;;;;;10356350;28;20461;-57
2022/05/11 15:25:13;;;;;;;4.35;2.80;;;;;;;;;;10351961;28;20078;-57
2022/05/11 15:30:12;;;;;;;5.20;3.70;;;;;;;;;;10351153;28;20352;-57
2022/05/11 15:35:13;;;;;;;4.18;2.42;;;;;;;;;;10347406;28;20083;-58
2022/05/11 15:40:12;;;;;;;4.07;3.08;;;;;;;;;;10354600;28;20074;-58
2022/05/11 15:45:11;;;;;;;4.07;3.38;;;;;;;;;;10350578;28;20095;-59
2022/05/11 15:50:10;;;;;;;7.68;4.82;;;;;;;;;;10350443;28;20434;-57
2022/05/11 15:55:11;;;;;;;7.13;4.53;;;;;;;;;;10354412;28;20091;-58
2022/05/11 16:00:11;;;;;;;4.05;3.10;;;;;;;;;;10361243;28;20082;-58
2022/05/11 16:05:10;;;;;;;7.65;3.20;;;;;;;;;;10358079;28;20352;-58
2022/05/11 16:10:11;;;;;;;5.85;4.20;;;;;;;;;;10362572;28;20094;-61
2022/05/11 16:15:16;;;;;;;4.35;2.70;;;;;;;;;;10362695;28;20079;-58
2022/05/11 16:20:14;;;;;;;4.20;2.88;;;;;;;;;;10356670;28;20044;-58
2022/05/11 16:25:13;;;;;;;7.97;4.22;;;;;;;;;;10357916;28;20071;-57
2022/05/11 16:30:12;;;;;;;4.88;3.13;;;;;;;;;;10357406;28;20040;-58
2022/05/11 16:35:11;;;;;;;6.25;3.33;;;;;;;;;;10361692;28;20390;-58
2022/05/11 16:40:10;;;;;;;14.23;3.90;;;;;;;;;;10356532;28;20551;-58
2022/05/11 16:45:12;;;;;;;5.65;2.70;;;;;;;;;;10360663;28;20085;-57
2022/05/11 16:50:10;;;;;;;5.63;3.58;;;;;;;;;;10356885;28;20501;-59
2022/05/11 16:55:10;;;;;;;12.90;4.10;;;;;;;;;;10357074;28;20079;-57
2022/05/11 17:00:10;;;;;;;6.55;4.63;;;;;;;;;;10360428;28;20086;-58
2022/05/11 17:05:11;;;;;;;6.10;3.40;;;;;;;;;;10361927;28;20501;-58
2022/05/11 17:10:09;;;;;;;11.52;7.03;;;;;;;;;;10360028;28;20060;-57
2022/05/11 17:15:09;;;;;;;6.72;2.80;;;;;;;;;;10361460;28;20044;-57
2022/05/11 17:20:09;;;;;;;15.43;4.07;;;;;;;;;;10358194;28;20090;-55
2022/05/11 17:25:10;;;;;;;4.35;3.22;;;;;;;;;;10357901;28;20067;-58
2022/05/11 17:30:09;;;;;;;10.48;4.65;;;;;;;;;;10357133;28;20090;-58
2022/05/11 17:35:09;;;;;;;7.75;4.70;;;;;;;;;;10356408;28;20076;-58
2022/05/11 17:40:08;;;;;;;6.78;4.00;;;;;;;;;;10356357;28;20075;-58
2022/05/11 17:45:09;;;;;;;13.20;5.88;;;;;;;;;;10356041;28;20079;-58
2022/05/11 17:50:08;;;;;;;9.27;5.07;;;;;;;;;;10355220;28;20079;-56
2022/05/11 17:55:09;;;;;;;9.73;6.00;;;;;;;;;;10354034;28;20458;-55
2022/05/11 18:00:11;;;;;;;8.70;6.07;;;;;;;;;;10352104;28;20070;-57
2022/05/11 18:05:11;;;;;;;5.18;4.40;;;;;;;;;;10349141;28;20087;-56
2022/05/11 18:10:10;;;;;;;4.97;3.88;;;;;;;;;;10354457;28;20094;-57
2022/05/11 18:15:11;;;;;;;6.32;4.57;;;;;;;;;;10356457;28;20485;-57
2022/05/11 18:20:12;;;;;;;8.52;5.97;;;;;;;;;;10353888;28;20473;-57
2022/05/11 18:25:11;;;;;;;15.95;10.38;;;;;;;;;;10352464;28;20517;-56
2022/05/11 18:30:11;;;;;;;18.67;14.25;;;;;;;;;;10353661;28;20068;-57
2022/05/11 18:35:11;;;;;;;14.23;8.35;;;;;;;;;;10353677;28;20460;-56
2022/05/11 18:40:10;;;;;;;9.45;3.83;;;;;;;;;;10354128;28;20493;-56
2022/05/11 18:45:09;;;;;;;9.02;4.22;;;;;;;;;;10352356;28;20099;-56
2022/05/11 18:50:10;;;;;;;10.00;6.68;;;;;;;;;;10351190;28;20059;-54
2022/05/11 18:55:09;;;;;;;53.88;46.65;;;;;;;;;;10352317;28;20083;-56
2022/05/11 19:00:09;;;;;;;12.82;6.18;;;;;;;;;;10354329;28;20067;-56
2022/05/11 19:05:10;;;;;;;10.23;4.65;;;;;;;;;;10351946;28;20076;-56
2022/05/11 19:10:10;;;;;;;6.43;3.85;;;;;;;;;;10354169;28;20087;-55
2022/05/11 19:15:11;;;;;;;7.28;3.78;;;;;;;;;;10355628;28;20075;-56
2022/05/11 19:20:12;;;;;;;7.28;5.03;;;;;;;;;;10354995;28;20070;-54
2022/05/11 19:25:11;;;;;;;5.53;3.67;;;;;;;;;;10353326;28;20094;-56
2022/05/11 19:30:10;;;;;;;6.95;4.85;;;;;;;;;;10352727;28;20075;-56
2022/05/11 19:35:09;;;;;;;9.93;4.32;;;;;;;;;;10359027;28;20059;-54
2022/05/11 19:40:10;;;;;;;4.53;3.55;;;;;;;;;;10361277;28;20086;-56
2022/05/11 19:45:10;;;;;;;6.20;4.35;;;;;;;;;;10361173;28;20478;-56
2022/05/11 19:50:09;;;;;;;4.25;3.22;;;;;;;;;;10361814;28;20057;-56
2022/05/11 19:55:10;;;;;;;8.50;3.47;;;;;;;;;;10360550;28;20064;-57
2022/05/11 20:00:11;;;;;;;4.32;2.80;;;;;;;;;;10361752;28;20064;-55
2022/05/11 20:05:10;;;;;;;4.20;2.85;;;;;;;;;;10362148;28;20060;-56
2022/05/11 20:10:10;;;;;;;4.28;2.97;;;;;;;;;;10360137;28;20080;-55
2022/05/11 20:15:09;;;;;;;4.75;2.75;;;;;;;;;;10362151;28;20040;-56
2022/05/11 20:20:09;;;;;;;7.88;3.42;;;;;;;;;;10362279;28;20094;-55
2022/05/11 20:25:08;;;;;;;3.70;2.97;;;;;;;;;;10358853;28;20082;-55
2022/05/11 20:30:11;;;;;;;5.53;3.72;;;;;;;;;;10360894;28;20071;-56
2022/05/11 20:35:08;;;;;;;4.32;2.97;;;;;;;;;;10360654;28;20067;-54
2022/05/11 20:40:10;;;;;;;4.82;3.30;;;;;;;;;;10359102;28;20082;-57
2022/05/11 20:45:12;;;;;;;5.70;3.38;;;;;;;;;;10357540;28;20463;-57
2022/05/11 20:50:11;;;;;;;6.78;3.30;;;;;;;;;;10359766;28;20078;-56
2022/05/11 20:55:11;;;;;;;5.60;3.33;;;;;;;;;;10352863;28;20074;-56
2022/05/11 21:00:11;;;;;;;3.67;3.38;;;;;;;;;;10359997;28;20052;-56
2022/05/11 21:05:11;;;;;;;4.35;2.95;;;;;;;;;;10362005;28;20048;-56
2022/05/11 21:10:11;;;;;;;4.63;3.05;;;;;;;;;;10359760;28;20079;-56
2022/05/11 21:15:11;;;;;;;6.18;2.63;;;;;;;;;;10358687;28;20071;-55
2022/05/11 21:20:12;;;;;;;4.53;2.78;;;;;;;;;;10358753;28;20146;-55
2022/05/11 21:25:11;;;;;;;4.38;2.65;;;;;;;;;;10359300;28;20071;-57
2022/05/11 21:30:13;;;;;;;6.15;3.30;;;;;;;;;;10360076;28;20079;-54
2022/05/11 21:35:12;;;;;;;4.93;3.20;;;;;;;;;;10352143;28;20071;-51
2022/05/11 21:40:13;;;;;;;6.43;3.28;;;;;;;;;;10360260;28;20051;-56
2022/05/11 21:45:13;;;;;;;5.28;3.55;;;;;;;;;;10357694;28;20124;-55
2022/05/11 21:50:13;;;;;;;4.70;3.08;;;;;;;;;;10353409;28;20078;-55
2022/05/11 21:55:12;;;;;;;4.40;2.97;;;;;;;;;;10359975;28;20424;-53
2022/05/11 22:00:32;;;;;;;7.90;3.92;;;;;;;;;;10358750;28;20064;-57
2022/05/11 22:05:32;;;;;;;5.65;4.63;;;;;;;;;;10356719;28;20043;-54
2022/05/11 22:10:32;;;;;;;7.93;3.17;;;;;;;;;;10358316;28;20086;-56
2022/05/11 22:15:31;;;;;;;5.15;3.03;;;;;;;;;;10358043;28;20052;-54
2022/05/11 22:20:29;;;;;;;5.28;3.28;;;;;;;;;;10356844;28;20067;-57
2022/05/11 22:25:29;;;;;;;6.60;3.10;;;;;;;;;;10356621;28;20063;-55
2022/05/11 22:30:29;;;;;;;3.08;2.80;;;;;;;;;;10356408;28;20079;-56
2022/05/11 22:35:27;;;;;;;4.45;3.33;;;;;;;;;;10355815;28;20523;-56
2022/05/11 22:40:26;;;;;;;4.53;3.22;;;;;;;;;;10355162;28;20048;-54
2022/05/11 22:45:25;;;;;;;3.88;3.13;;;;;;;;;;10355889;28;20076;-56
2022/05/11 22:50:24;;;;;;;4.22;3.15;;;;;;;;;;10355885;28;20071;-57
2022/05/11 22:55:22;;;;;;;3.72;3.20;;;;;;;;;;10355530;28;20079;-56
2022/05/11 23:00:22;;;;;;;3.10;2.80;;;;;;;;;;10355359;28;20072;-58
2022/05/11 23:05:22;;;;;;;5.20;3.83;;;;;;;;;;10356342;28;20044;-56
2022/05/11 23:10:22;;;;;;;4.18;3.08;;;;;;;;;;10355476;28;20630;-58
2022/05/11 23:15:21;;;;;;;5.93;3.15;;;;;;;;;;10356409;28;20421;-57
2022/05/11 23:20:21;;;;;;;7.03;3.50;;;;;;;;;;10356166;28;20069;-53
2022/05/11 23:25:21;;;;;;;4.53;3.00;;;;;;;;;;10355094;28;20055;-57
2022/05/11 23:30:21;;;;;;;6.45;3.75;;;;;;;;;;10354337;28;20551;-56
2022/05/11 23:35:20;;;;;;;4.13;2.85;;;;;;;;;;10355126;28;20071;-56
2022/05/11 23:40:19;;;;;;;3.13;2.78;;;;;;;;;;10354620;28;20075;-56
2022/05/11 23:45:18;;;;;;;4.72;3.50;;;;;;;;;;10354099;28;20082;-56
2022/05/11 23:50:18;;;;;;;3.95;2.90;;;;;;;;;;10354418;28;20075;-54
2022/05/11 23:55:16;;;;;;;5.03;3.25;;;;;;;;;;10354656;28;20071;-55
